sensor_id;sensor_type;location;lat;lon;timestamp;pressure;altitude;pressure_sealevel;temperature;humidity
62510;BME280;48558;48.242;11.654;2023-03-11T00:03:24;94857.78;;;2.60;100.00
62510;BME280;48558;48.242;11.654;2023-03-11T00:07:38;94873.25;;;2.41;100.00
62510;BME280;48558;48.242;11.654;2023-03-11T00:11:51;94870.38;;;2.45;100.00
62510;BME280;48558;48.242;11.654;2023-03-11T00:16:04;94857.22;;;2.43;100.00
62510;BME280;48558;48.242;11.654;2023-03-11T00:20:23;94872.38;;;2.44;100.00
62510;BME280;48558;48.242;11.654;2023-03-11T00:24:37;94883.78;;;2.30;100.00
62510;BME280;48558;48.242;11.654;2023-03-11T00:28:49;94909.56;;;2.38;97.96
62510;BME280;48558;48.242;11.654;2023-03-11T00:33:02;94911.66;;;2.34;100.00
62510;BME280;48558;48.242;11.654;2023-03-11T00:37:15;94933.16;;;2.32;100.00
62510;BME280;48558;48.242;11.654;2023-03-11T00:41:27;94934.66;;;2.33;100.00
62510;BME280;48558;48.242;11.654;2023-03-11T00:45:40;94939.22;;;2.14;100.00
62510;BME280;48558;48.242;11.654;2023-03-11T00:49:53;94940.22;;;2.08;100.00
62510;BME280;48558;48.242;11.654;2023-03-11T00:54:05;94934.19;;;2.13;100.00
62510;BME280;48558;48.242;11.654;2023-03-11T00:58:18;94944.75;;;2.11;100.00
62510;BME280;48558;48.242;11.654;2023-03-11T01:02:30;94966.47;;;2.02;100.00
62510;BME280;48558;48.242;11.654;2023-03-11T01:06:44;94957.22;;;1.99;100.00
62510;BME280;48558;48.242;11.654;2023-03-11T01:10:58;94969.50;;;2.04;100.00
62510;BME280;48558;48.242;11.654;2023-03-11T01:15:30;94973.44;;;2.03;100.00
62510;BME280;48558;48.242;11.654;2023-03-11T01:19:45;94948.31;;;1.86;100.00
62510;BME280;48558;48.242;11.654;2023-03-11T01:23:57;94933.59;;;1.84;100.00
62510;BME280;48558;48.242;11.654;2023-03-11T01:28:10;94952.84;;;2.02;100.00
62510;BME280;48558;48.242;11.654;2023-03-11T01:32:22;94961.94;;;1.86;100.00
62510;BME280;48558;48.242;11.654;2023-03-11T01:36:35;94971.72;;;1.96;100.00
62510;BME280;48558;48.242;11.654;2023-03-11T01:40:50;94982.94;;;1.86;100.00
62510;BME280;48558;48.242;11.654;2023-03-11T01:46:01;94995.16;;;1.94;97.67
62510;BME280;48558;48.242;11.654;2023-03-11T01:50:13;94995.34;;;1.99;89.30
62510;BME280;48558;48.242;11.654;2023-03-11T01:54:30;94984.03;;;1.88;89.26
62510;BME280;48558;48.242;11.654;2023-03-11T01:58:51;95000.50;;;1.85;91.98
62510;BME280;48558;48.242;11.654;2023-03-11T02:03:08;94988.75;;;1.75;90.95
62510;BME280;48558;48.242;11.654;2023-03-11T02:07:25;94981.03;;;1.74;94.05
62510;BME280;48558;48.242;11.654;2023-03-11T02:11:37;94977.09;;;1.62;95.88
62510;BME280;48558;48.242;11.654;2023-03-11T02:15:50;94978.19;;;1.65;95.00
62510;BME280;48558;48.242;11.654;2023-03-11T02:25:25;94996.47;;;1.52;99.07
62510;BME280;48558;48.242;11.654;2023-03-11T02:30:05;95001.06;;;1.55;98.21
62510;BME280;48558;48.242;11.654;2023-03-11T02:34:28;94987.97;;;1.50;98.10
62510;BME280;48558;48.242;11.654;2023-03-11T02:38:41;94980.91;;;1.52;96.81
62510;BME280;48558;48.242;11.654;2023-03-11T02:43:02;94998.22;;;1.45;100.00
62510;BME280;48558;48.242;11.654;2023-03-11T02:47:18;94997.47;;;1.32;100.00
62510;BME280;48558;48.242;11.654;2023-03-11T02:51:30;95007.81;;;1.37;100.00
62510;BME280;48558;48.242;11.654;2023-03-11T02:55:43;95012.28;;;1.44;100.00
62510;BME280;48558;48.242;11.654;2023-03-11T02:59:55;95015.53;;;1.26;100.00
62510;BME280;48558;48.242;11.654;2023-03-11T03:04:11;95012.81;;;1.26;100.00
62510;BME280;48558;48.242;11.654;2023-03-11T03:08:24;95023.25;;;1.28;100.00
62510;BME280;48558;48.242;11.654;2023-03-11T03:12:37;95019.09;;;1.23;99.63
62510;BME280;48558;48.242;11.654;2023-03-11T03:16:56;95036.28;;;1.20;100.00
62510;BME280;48558;48.242;11.654;2023-03-11T03:21:08;95045.34;;;1.17;100.00
62510;BME280;48558;48.242;11.654;2023-03-11T03:25:21;95048.53;;;1.00;100.00
62510;BME280;48558;48.242;11.654;2023-03-11T03:29:33;95060.28;;;0.97;100.00
62510;BME280;48558;48.242;11.654;2023-03-11T03:33:46;95042.63;;;0.89;100.00
62510;BME280;48558;48.242;11.654;2023-03-11T03:38:01;95050.03;;;0.88;100.00
62510;BME280;48558;48.242;11.654;2023-03-11T03:42:14;95039.28;;;0.68;100.00
62510;BME280;48558;48.242;11.654;2023-03-11T03:46:26;95058.84;;;0.63;100.00
62510;BME280;48558;48.242;11.654;2023-03-11T03:50:39;95066.75;;;0.58;100.00
62510;BME280;48558;48.242;11.654;2023-03-11T03:54:52;95065.91;;;0.61;100.00
62510;BME280;48558;48.242;11.654;2023-03-11T03:59:04;95047.22;;;0.63;100.00
62510;BME280;48558;48.242;11.654;2023-03-11T04:03:17;95038.97;;;0.66;100.00
62510;BME280;48558;48.242;11.654;2023-03-11T04:07:29;95052.91;;;0.52;100.00
62510;BME280;48558;48.242;11.654;2023-03-11T04:11:52;95058.50;;;0.61;100.00
62510;BME280;48558;48.242;11.654;2023-03-11T04:16:06;95077.28;;;0.56;100.00
62510;BME280;48558;48.242;11.654;2023-03-11T04:20:19;95069.66;;;0.51;100.00
62510;BME280;48558;48.242;11.654;2023-03-11T04:24:31;95075.44;;;0.53;100.00
62510;BME280;48558;48.242;11.654;2023-03-11T04:28:49;95084.84;;;0.48;100.00
62510;BME280;48558;48.242;11.654;2023-03-11T04:33:02;95081.22;;;0.39;100.00
62510;BME280;48558;48.242;11.654;2023-03-11T04:37:14;95081.97;;;0.55;100.00
62510;BME280;48558;48.242;11.654;2023-03-11T04:41:27;95077.31;;;0.40;100.00
62510;BME280;48558;48.242;11.654;2023-03-11T04:45:49;95080.28;;;0.45;100.00
62510;BME280;48558;48.242;11.654;2023-03-11T04:50:03;95100.22;;;0.55;100.00
62510;BME280;48558;48.242;11.654;2023-03-11T04:54:16;95094.97;;;0.48;100.00
62510;BME280;48558;48.242;11.654;2023-03-11T04:58:28;95107.88;;;0.44;100.00
62510;BME280;48558;48.242;11.654;2023-03-11T05:02:41;95114.47;;;0.59;100.00
62510;BME280;48558;48.242;11.654;2023-03-11T05:06:54;95115.31;;;0.72;100.00
62510;BME280;48558;48.242;11.654;2023-03-11T05:11:06;95124.16;;;0.76;100.00
62510;BME280;48558;48.242;11.654;2023-03-11T05:15:29;95117.88;;;0.79;100.00
62510;BME280;48558;48.242;11.654;2023-03-11T05:19:42;95127.09;;;0.82;100.00
62510;BME280;48558;48.242;11.654;2023-03-11T05:23:55;95142.34;;;0.79;100.00
62510;BME280;48558;48.242;11.654;2023-03-11T05:28:17;95145.06;;;0.79;100.00
62510;BME280;48558;48.242;11.654;2023-03-11T05:32:30;95159.06;;;0.78;100.00
62510;BME280;48558;48.242;11.654;2023-03-11T05:36:43;95159.38;;;0.80;100.00
62510;BME280;48558;48.242;11.654;2023-03-11T05:40:55;95168.41;;;0.77;100.00
62510;BME280;48558;48.242;11.654;2023-03-11T05:45:08;95179.34;;;0.73;100.00
62510;BME280;48558;48.242;11.654;2023-03-11T05:49:21;95179.63;;;0.79;100.00
62510;BME280;48558;48.242;11.654;2023-03-11T05:53:34;95186.22;;;0.78;100.00
62510;BME280;48558;48.242;11.654;2023-03-11T05:57:50;95181.25;;;0.76;100.00
62510;BME280;48558;48.242;11.654;2023-03-11T06:02:03;95173.59;;;0.71;100.00
62510;BME280;48558;48.242;11.654;2023-03-11T06:06:15;95170.88;;;0.55;100.00
62510;BME280;48558;48.242;11.654;2023-03-11T06:10:28;95174.88;;;0.66;100.00
62510;BME280;48558;48.242;11.654;2023-03-11T06:14:41;95175.38;;;0.61;100.00
62510;BME280;48558;48.242;11.654;2023-03-11T06:18:54;95194.72;;;0.63;100.00
62510;BME280;48558;48.242;11.654;2023-03-11T06:23:06;95185.56;;;0.57;100.00
62510;BME280;48558;48.242;11.654;2023-03-11T06:27:19;95191.69;;;0.61;100.00
62510;BME280;48558;48.242;11.654;2023-03-11T06:31:35;95208.16;;;0.70;100.00
62510;BME280;48558;48.242;11.654;2023-03-11T06:35:56;95213.53;;;0.90;100.00
62510;BME280;48558;48.242;11.654;2023-03-11T06:40:09;95217.91;;;0.68;100.00
62510;BME280;48558;48.242;11.654;2023-03-11T06:44:23;95221.00;;;0.70;100.00
62510;BME280;48558;48.242;11.654;2023-03-11T06:48:36;95233.72;;;0.89;100.00
62510;BME280;48558;48.242;11.654;2023-03-11T06:52:49;95229.47;;;1.04;100.00
62510;BME280;48558;48.242;11.654;2023-03-11T06:57:02;95230.16;;;0.76;100.00
62510;BME280;48558;48.242;11.654;2023-03-11T07:01:19;95242.31;;;0.88;100.00
62510;BME280;48558;48.242;11.654;2023-03-11T07:05:34;95248.34;;;0.95;100.00
62510;BME280;48558;48.242;11.654;2023-03-11T07:09:46;95249.09;;;0.96;100.00
62510;BME280;48558;48.242;11.654;2023-03-11T07:13:59;95248.50;;;1.04;100.00
62510;BME280;48558;48.242;11.654;2023-03-11T07:18:21;95271.97;;;0.98;100.00
62510;BME280;48558;48.242;11.654;2023-03-11T07:22:44;95268.25;;;0.92;100.00
62510;BME280;48558;48.242;11.654;2023-03-11T07:26:56;95300.53;;;0.90;100.00
62510;BME280;48558;48.242;11.654;2023-03-11T07:31:12;95308.16;;;0.95;100.00
62510;BME280;48558;48.242;11.654;2023-03-11T07:35:26;95298.63;;;0.71;100.00
62510;BME280;48558;48.242;11.654;2023-03-11T07:39:39;95309.50;;;0.71;100.00
62510;BME280;48558;48.242;11.654;2023-03-11T07:43:57;95317.00;;;0.83;100.00
62510;BME280;48558;48.242;11.654;2023-03-11T07:48:11;95312.41;;;0.80;100.00
62510;BME280;48558;48.242;11.654;2023-03-11T07:52:24;95322.81;;;1.01;100.00
62510;BME280;48558;48.242;11.654;2023-03-11T07:56:36;95323.13;;;1.35;100.00
62510;BME280;48558;48.242;11.654;2023-03-11T08:00:49;95324.56;;;0.76;100.00
62510;BME280;48558;48.242;11.654;2023-03-11T08:05:02;95333.69;;;1.17;100.00
62510;BME280;48558;48.242;11.654;2023-03-11T08:09:16;95336.72;;;1.52;95.89
62510;BME280;48558;48.242;11.654;2023-03-11T08:13:28;95325.00;;;1.38;95.94
62510;BME280;48558;48.242;11.654;2023-03-11T08:17:41;95333.22;;;1.96;91.18
62510;BME280;48558;48.242;11.654;2023-03-11T08:21:53;95333.06;;;1.58;92.44
62510;BME280;48558;48.242;11.654;2023-03-11T08:26:08;95335.53;;;1.53;89.15
62510;BME280;48558;48.242;11.654;2023-03-11T08:30:23;95338.97;;;1.24;87.80
62510;BME280;48558;48.242;11.654;2023-03-11T08:34:36;95362.75;;;1.20;87.99
62510;BME280;48558;48.242;11.654;2023-03-11T08:38:51;95362.16;;;1.13;88.12
62510;BME280;48558;48.242;11.654;2023-03-11T08:43:04;95369.28;;;1.71;85.04
62510;BME280;48558;48.242;11.654;2023-03-11T08:47:17;95373.53;;;1.72;84.63
62510;BME280;48558;48.242;11.654;2023-03-11T08:51:31;95380.50;;;1.89;84.49
62510;BME280;48558;48.242;11.654;2023-03-11T08:55:44;95374.38;;;2.14;80.80
62510;BME280;48558;48.242;11.654;2023-03-11T08:59:57;95378.19;;;2.45;78.11
62510;BME280;48558;48.242;11.654;2023-03-11T09:04:09;95381.34;;;2.15;80.58
62510;BME280;48558;48.242;11.654;2023-03-11T09:08:24;95385.84;;;2.50;78.32
62510;BME280;48558;48.242;11.654;2023-03-11T09:12:37;95382.31;;;2.08;79.13
62510;BME280;48558;48.242;11.654;2023-03-11T09:16:50;95397.13;;;2.36;81.40
62510;BME280;48558;48.242;11.654;2023-03-11T09:21:02;95395.19;;;2.90;73.73
62510;BME280;48558;48.242;11.654;2023-03-11T09:25:15;95388.50;;;2.66;70.89
62510;BME280;48558;48.242;11.654;2023-03-11T09:29:28;95377.63;;;3.42;69.71
62510;BME280;48558;48.242;11.654;2023-03-11T09:33:41;95384.88;;;3.83;68.64
62510;BME280;48558;48.242;11.654;2023-03-11T09:37:54;95383.56;;;2.49;71.30
62510;BME280;48558;48.242;11.654;2023-03-11T09:52:15;95392.22;;;2.72;68.05
62510;BME280;48558;48.242;11.654;2023-03-11T09:56:33;95392.63;;;2.58;71.91
62510;BME280;48558;48.242;11.654;2023-03-11T10:00:48;95400.44;;;3.35;68.61
62510;BME280;48558;48.242;11.654;2023-03-11T10:05:16;95400.19;;;4.14;63.83
62510;BME280;48558;48.242;11.654;2023-03-11T10:09:44;95410.72;;;4.16;62.43
62510;BME280;48558;48.242;11.654;2023-03-11T10:14:37;95421.53;;;3.47;62.14
62510;BME280;48558;48.242;11.654;2023-03-11T10:23:49;95413.88;;;4.70;56.47
62510;BME280;48558;48.242;11.654;2023-03-11T10:28:49;95411.34;;;5.37;57.91
62510;BME280;48558;48.242;11.654;2023-03-11T10:38:32;95433.88;;;3.39;63.40
62510;BME280;48558;48.242;11.654;2023-03-11T10:42:47;95434.88;;;2.79;63.96
62510;BME280;48558;48.242;11.654;2023-03-11T10:47:19;95437.78;;;3.76;60.12
62510;BME280;48558;48.242;11.654;2023-03-11T10:51:34;95433.22;;;4.54;59.58
62510;BME280;48558;48.242;11.654;2023-03-11T10:55:52;95438.59;;;3.39;64.86
62510;BME280;48558;48.242;11.654;2023-03-11T11:00:07;95442.44;;;2.87;62.49
62510;BME280;48558;48.242;11.654;2023-03-11T11:04:38;95454.63;;;3.62;61.17
62510;BME280;48558;48.242;11.654;2023-03-11T11:13:27;95444.47;;;3.75;58.63
62510;BME280;48558;48.242;11.654;2023-03-11T11:17:46;95440.84;;;3.91;57.64
62510;BME280;48558;48.242;11.654;2023-03-11T11:22:02;95438.59;;;3.39;61.17
62510;BME280;48558;48.242;11.654;2023-03-11T11:26:26;95419.88;;;3.75;63.51
62510;BME280;48558;48.242;11.654;2023-03-11T11:31:03;95451.78;;;5.02;56.41
62510;BME280;48558;48.242;11.654;2023-03-11T11:35:19;95441.03;;;4.09;57.39
62510;BME280;48558;48.242;11.654;2023-03-11T11:39:44;95436.88;;;5.03;55.34
62510;BME280;48558;48.242;11.654;2023-03-11T11:44:03;95433.31;;;4.94;54.57
62510;BME280;48558;48.242;11.654;2023-03-11T11:52:50;95417.94;;;3.50;57.07
62510;BME280;48558;48.242;11.654;2023-03-11T11:57:20;95417.25;;;4.18;57.77
62510;BME280;48558;48.242;11.654;2023-03-11T12:01:53;95425.03;;;4.42;55.84
62510;BME280;48558;48.242;11.654;2023-03-11T12:11:15;95423.28;;;3.29;59.73
62510;BME280;48558;48.242;11.654;2023-03-11T12:15:41;95415.88;;;4.01;58.47
62510;BME280;48558;48.242;11.654;2023-03-11T12:29:08;95417.63;;;5.47;53.71
62510;BME280;48558;48.242;11.654;2023-03-11T12:33:45;95411.50;;;3.57;57.49
62510;BME280;48558;48.242;11.654;2023-03-11T12:42:37;95417.59;;;4.64;54.51
62510;BME280;48558;48.242;11.654;2023-03-11T12:46:59;95429.03;;;4.84;54.14
62510;BME280;48558;48.242;11.654;2023-03-11T12:56:09;95379.81;;;4.93;53.90
62510;BME280;48558;48.242;11.654;2023-03-11T13:01:02;95404.56;;;4.24;53.76
62510;BME280;48558;48.242;11.654;2023-03-11T13:10:37;95389.31;;;5.90;55.68
62510;BME280;48558;48.242;11.654;2023-03-11T13:23:43;95395.47;;;7.26;56.00
62510;BME280;48558;48.242;11.654;2023-03-11T13:28:02;95398.19;;;4.71;60.33
62510;BME280;48558;48.242;11.654;2023-03-11T13:32:47;95410.91;;;4.86;66.01
62510;BME280;48558;48.242;11.654;2023-03-11T13:37:23;95405.03;;;6.07;57.60
62510;BME280;48558;48.242;11.654;2023-03-11T13:41:42;95396.66;;;6.29;53.46
62510;BME280;48558;48.242;11.654;2023-03-11T13:46:02;95409.59;;;5.92;53.19
62510;BME280;48558;48.242;11.654;2023-03-11T13:50:25;95414.66;;;6.84;50.79
62510;BME280;48558;48.242;11.654;2023-03-11T13:54:47;95422.41;;;6.22;53.04
62510;BME280;48558;48.242;11.654;2023-03-11T13:59:28;95433.28;;;6.80;50.97
62510;BME280;48558;48.242;11.654;2023-03-11T14:03:46;95424.56;;;6.82;50.18
62510;BME280;48558;48.242;11.654;2023-03-11T14:08:18;95433.19;;;7.26;51.85
62510;BME280;48558;48.242;11.654;2023-03-11T14:12:35;95425.03;;;6.44;53.46
62510;BME280;48558;48.242;11.654;2023-03-11T14:16:47;95425.41;;;7.66;48.39
62510;BME280;48558;48.242;11.654;2023-03-11T14:21:03;95423.75;;;6.09;53.18
62510;BME280;48558;48.242;11.654;2023-03-11T14:25:20;95432.13;;;4.95;56.86
62510;BME280;48558;48.242;11.654;2023-03-11T14:29:38;95423.56;;;5.15;56.17
62510;BME280;48558;48.242;11.654;2023-03-11T14:38:41;95429.16;;;6.76;52.05
62510;BME280;48558;48.242;11.654;2023-03-11T14:54:49;95437.19;;;5.05;54.56
62510;BME280;48558;48.242;11.654;2023-03-11T15:05:35;95447.53;;;4.80;57.63
62510;BME280;48558;48.242;11.654;2023-03-11T15:09:54;95454.34;;;4.41;59.15
62510;BME280;48558;48.242;11.654;2023-03-11T15:14:28;95456.38;;;4.62;59.67
62510;BME280;48558;48.242;11.654;2023-03-11T15:18:43;95456.53;;;4.46;60.27
62510;BME280;48558;48.242;11.654;2023-03-11T15:22:57;95465.75;;;4.40;60.67
62510;BME280;48558;48.242;11.654;2023-03-11T15:27:44;95459.06;;;4.06;59.59
62510;BME280;48558;48.242;11.654;2023-03-11T15:31:55;95465.72;;;4.18;58.53
62510;BME280;48558;48.242;11.654;2023-03-11T15:36:34;95457.84;;;4.42;58.60
62510;BME280;48558;48.242;11.654;2023-03-11T15:40:55;95458.88;;;3.88;58.58
62510;BME280;48558;48.242;11.654;2023-03-11T15:45:12;95464.63;;;4.03;59.40
62510;BME280;48558;48.242;11.654;2023-03-11T15:49:28;95481.81;;;3.78;60.17
62510;BME280;48558;48.242;11.654;2023-03-11T15:53:41;95481.59;;;3.60;60.72
62510;BME280;48558;48.242;11.654;2023-03-11T15:58:18;95494.94;;;3.58;61.69
62510;BME280;48558;48.242;11.654;2023-03-11T16:02:31;95492.22;;;3.45;62.53
62510;BME280;48558;48.242;11.654;2023-03-11T16:06:45;95503.91;;;3.58;63.26
62510;BME280;48558;48.242;11.654;2023-03-11T16:11:17;95491.34;;;3.86;64.45
62510;BME280;48558;48.242;11.654;2023-03-11T16:15:32;95492.31;;;3.67;63.70
62510;BME280;48558;48.242;11.654;2023-03-11T16:19:53;95492.09;;;3.49;63.62
62510;BME280;48558;48.242;11.654;2023-03-11T16:24:06;95489.69;;;3.51;63.76
62510;BME280;48558;48.242;11.654;2023-03-11T16:28:19;95498.78;;;3.48;66.42
62510;BME280;48558;48.242;11.654;2023-03-11T16:32:32;95502.16;;;3.52;67.98
62510;BME280;48558;48.242;11.654;2023-03-11T16:36:44;95514.13;;;3.29;66.30
62510;BME280;48558;48.242;11.654;2023-03-11T16:41:00;95520.13;;;3.24;66.42
62510;BME280;48558;48.242;11.654;2023-03-11T16:45:15;95521.75;;;3.22;67.27
62510;BME280;48558;48.242;11.654;2023-03-11T16:49:28;95519.34;;;3.24;66.25
62510;BME280;48558;48.242;11.654;2023-03-11T16:53:41;95526.75;;;3.11;66.69
62510;BME280;48558;48.242;11.654;2023-03-11T16:57:54;95530.00;;;3.06;65.42
62510;BME280;48558;48.242;11.654;2023-03-11T17:02:10;95526.28;;;3.00;67.32
62510;BME280;48558;48.242;11.654;2023-03-11T17:06:22;95546.34;;;2.93;66.13
62510;BME280;48558;48.242;11.654;2023-03-11T17:10:40;95556.50;;;2.92;66.11
62510;BME280;48558;48.242;11.654;2023-03-11T17:14:54;95546.88;;;2.88;69.29
62510;BME280;48558;48.242;11.654;2023-03-11T17:19:07;95578.84;;;2.87;73.04
62510;BME280;48558;48.242;11.654;2023-03-11T17:23:20;95596.59;;;2.79;74.15
62510;BME280;48558;48.242;11.654;2023-03-11T17:27:32;95613.16;;;2.72;73.47
62510;BME280;48558;48.242;11.654;2023-03-11T17:31:45;95617.06;;;2.71;74.38
62510;BME280;48558;48.242;11.654;2023-03-11T17:36:04;95631.91;;;2.70;73.85
62510;BME280;48558;48.242;11.654;2023-03-11T17:40:18;95634.72;;;2.67;73.49
62510;BME280;48558;48.242;11.654;2023-03-11T17:44:31;95612.66;;;2.61;74.78
62510;BME280;48558;48.242;11.654;2023-03-11T17:49:01;95608.97;;;2.68;76.03
62510;BME280;48558;48.242;11.654;2023-03-11T17:53:14;95602.94;;;2.60;77.77
62510;BME280;48558;48.242;11.654;2023-03-11T17:57:26;95606.94;;;2.56;75.25
62510;BME280;48558;48.242;11.654;2023-03-11T18:01:39;95615.72;;;2.31;77.29
62510;BME280;48558;48.242;11.654;2023-03-11T18:06:00;95618.38;;;2.35;78.33
62510;BME280;48558;48.242;11.654;2023-03-11T18:10:15;95631.56;;;2.20;80.77
62510;BME280;48558;48.242;11.654;2023-03-11T18:14:27;95626.22;;;2.33;79.09
62510;BME280;48558;48.242;11.654;2023-03-11T18:18:41;95638.88;;;2.23;83.89
62510;BME280;48558;48.242;11.654;2023-03-11T18:22:54;95640.59;;;2.17;80.59
62510;BME280;48558;48.242;11.654;2023-03-11T18:27:07;95636.94;;;2.24;84.65
62510;BME280;48558;48.242;11.654;2023-03-11T18:31:21;95641.88;;;2.29;83.50
62510;BME280;48558;48.242;11.654;2023-03-11T18:35:35;95655.06;;;2.14;83.20
62510;BME280;48558;48.242;11.654;2023-03-11T18:39:47;95654.94;;;2.01;82.85
62510;BME280;48558;48.242;11.654;2023-03-11T18:44:00;95668.06;;;1.71;82.64
62510;BME280;48558;48.242;11.654;2023-03-11T18:48:13;95659.25;;;1.83;83.36
62510;BME280;48558;48.242;11.654;2023-03-11T18:52:26;95670.47;;;1.65;85.53
62510;BME280;48558;48.242;11.654;2023-03-11T18:56:49;95668.34;;;1.57;88.51
62510;BME280;48558;48.242;11.654;2023-03-11T19:01:09;95676.34;;;1.64;93.62
62510;BME280;48558;48.242;11.654;2023-03-11T19:05:26;95676.28;;;1.48;93.76
62510;BME280;48558;48.242;11.654;2023-03-11T19:09:48;95689.91;;;1.28;100.00
62510;BME280;48558;48.242;11.654;2023-03-11T19:14:01;95692.28;;;1.26;97.47
62510;BME280;48558;48.242;11.654;2023-03-11T19:18:14;95695.25;;;1.31;96.85
62510;BME280;48558;48.242;11.654;2023-03-11T19:22:26;95687.38;;;1.37;93.70
62510;BME280;48558;48.242;11.654;2023-03-11T19:26:39;95686.41;;;1.47;97.70
62510;BME280;48558;48.242;11.654;2023-03-11T19:31:06;95690.97;;;1.54;95.25
62510;BME280;48558;48.242;11.654;2023-03-11T19:35:19;95702.69;;;1.51;94.67
62510;BME280;48558;48.242;11.654;2023-03-11T19:39:32;95699.41;;;1.59;92.57
62510;BME280;48558;48.242;11.654;2023-03-11T19:43:46;95702.47;;;1.61;90.52
62510;BME280;48558;48.242;11.654;2023-03-11T19:47:58;95706.09;;;1.55;99.35
62510;BME280;48558;48.242;11.654;2023-03-11T19:52:11;95719.09;;;1.67;95.99
62510;BME280;48558;48.242;11.654;2023-03-11T19:56:24;95718.16;;;1.34;100.00
62510;BME280;48558;48.242;11.654;2023-03-11T20:00:39;95733.50;;;1.24;100.00
62510;BME280;48558;48.242;11.654;2023-03-11T20:04:52;95738.84;;;1.08;100.00
62510;BME280;48558;48.242;11.654;2023-03-11T20:09:05;95738.59;;;0.99;100.00
62510;BME280;48558;48.242;11.654;2023-03-11T20:13:20;95735.69;;;0.87;100.00
62510;BME280;48558;48.242;11.654;2023-03-11T20:17:33;95736.53;;;0.84;100.00
62510;BME280;48558;48.242;11.654;2023-03-11T20:21:45;95740.19;;;0.73;100.00
62510;BME280;48558;48.242;11.654;2023-03-11T20:25:58;95746.06;;;0.68;100.00
62510;BME280;48558;48.242;11.654;2023-03-11T20:30:11;95735.78;;;0.56;100.00
62510;BME280;48558;48.242;11.654;2023-03-11T20:34:24;95748.00;;;0.45;100.00
62510;BME280;48558;48.242;11.654;2023-03-11T20:38:37;95751.53;;;0.42;100.00
62510;BME280;48558;48.242;11.654;2023-03-11T20:42:49;95757.50;;;0.30;100.00
62510;BME280;48558;48.242;11.654;2023-03-11T20:47:02;95753.91;;;0.10;100.00
62510;BME280;48558;48.242;11.654;2023-03-11T20:51:16;95754.78;;;0.03;100.00
62510;BME280;48558;48.242;11.654;2023-03-11T20:55:31;95758.16;;;-0.20;100.00
62510;BME280;48558;48.242;11.654;2023-03-11T20:59:43;95751.59;;;-0.22;100.00
62510;BME280;48558;48.242;11.654;2023-03-11T21:03:58;95766.06;;;-0.32;100.00
62510;BME280;48558;48.242;11.654;2023-03-11T21:08:21;95764.50;;;-0.33;100.00
62510;BME280;48558;48.242;11.654;2023-03-11T21:12:33;95765.56;;;-0.57;100.00
62510;BME280;48558;48.242;11.654;2023-03-11T21:16:46;95755.22;;;-0.69;100.00
62510;BME280;48558;48.242;11.654;2023-03-11T21:20:59;95765.34;;;-0.74;100.00
62510;BME280;48558;48.242;11.654;2023-03-11T21:25:12;95756.19;;;-0.90;100.00
62510;BME280;48558;48.242;11.654;2023-03-11T21:29:25;95758.03;;;-0.80;100.00
62510;BME280;48558;48.242;11.654;2023-03-11T21:33:38;95758.44;;;-0.82;100.00
62510;BME280;48558;48.242;11.654;2023-03-11T21:37:52;95765.47;;;-0.88;100.00
62510;BME280;48558;48.242;11.654;2023-03-11T21:42:05;95775.41;;;-0.74;100.00
62510;BME280;48558;48.242;11.654;2023-03-11T21:46:21;95772.19;;;-0.62;100.00
62510;BME280;48558;48.242;11.654;2023-03-11T21:50:39;95773.94;;;-0.45;100.00
62510;BME280;48558;48.242;11.654;2023-03-11T21:54:52;95767.34;;;-0.44;100.00
62510;BME280;48558;48.242;11.654;2023-03-11T21:59:05;95778.09;;;-0.33;100.00
62510;BME280;48558;48.242;11.654;2023-03-11T22:03:18;95781.44;;;-0.19;100.00
62510;BME280;48558;48.242;11.654;2023-03-11T22:07:41;95773.31;;;-0.22;100.00
62510;BME280;48558;48.242;11.654;2023-03-11T22:11:54;95762.72;;;-0.47;100.00
62510;BME280;48558;48.242;11.654;2023-03-11T22:16:07;95775.28;;;-0.60;100.00
62510;BME280;48558;48.242;11.654;2023-03-11T22:20:20;95778.75;;;-0.59;100.00
62510;BME280;48558;48.242;11.654;2023-03-11T22:24:33;95785.06;;;-0.32;100.00
62510;BME280;48558;48.242;11.654;2023-03-11T22:28:45;95774.44;;;-0.20;100.00
62510;BME280;48558;48.242;11.654;2023-03-11T22:32:58;95778.56;;;-0.05;100.00
62510;BME280;48558;48.242;11.654;2023-03-11T22:37:10;95798.59;;;0.05;100.00
62510;BME280;48558;48.242;11.654;2023-03-11T22:41:27;95777.19;;;0.11;100.00
62510;BME280;48558;48.242;11.654;2023-03-11T22:45:40;95789.84;;;0.21;100.00
62510;BME280;48558;48.242;11.654;2023-03-11T22:49:52;95787.97;;;0.18;100.00
62510;BME280;48558;48.242;11.654;2023-03-11T22:54:05;95796.13;;;0.18;100.00
62510;BME280;48558;48.242;11.654;2023-03-11T22:58:19;95802.28;;;0.18;100.00
62510;BME280;48558;48.242;11.654;2023-03-11T23:02:31;95789.78;;;-0.03;100.00
62510;BME280;48558;48.242;11.654;2023-03-11T23:06:44;95795.66;;;-0.11;100.00
62510;BME280;48558;48.242;11.654;2023-03-11T23:11:01;95801.00;;;-0.38;100.00
62510;BME280;48558;48.242;11.654;2023-03-11T23:15:16;95799.25;;;-0.55;100.00
62510;BME280;48558;48.242;11.654;2023-03-11T23:19:29;95810.00;;;-0.44;100.00
62510;BME280;48558;48.242;11.654;2023-03-11T23:23:42;95806.63;;;-0.55;100.00
62510;BME280;48558;48.242;11.654;2023-03-11T23:27:55;95811.34;;;-0.63;100.00
62510;BME280;48558;48.242;11.654;2023-03-11T23:32:09;95811.44;;;-0.33;100.00
62510;BME280;48558;48.242;11.654;2023-03-11T23:36:23;95823.16;;;-0.06;100.00
62510;BME280;48558;48.242;11.654;2023-03-11T23:40:39;95829.66;;;0.04;100.00
62510;BME280;48558;48.242;11.654;2023-03-11T23:44:52;95824.84;;;0.15;100.00
62510;BME280;48558;48.242;11.654;2023-03-11T23:49:05;95814.78;;;0.16;100.00
62510;BME280;48558;48.242;11.654;2023-03-11T23:53:18;95815.41;;;0.27;100.00
62510;BME280;48558;48.242;11.654;2023-03-11T23:57:35;95829.50;;;0.15;100.00
